Tiempo atmosférico en la estación meteorológica de Mutriku, Gipuzkoa (150 m.)



Fecha
DESCASC
Temp. máxima en grados centígrados (hora)
DESCASC
Temp. mínima en grados centígrados (hora)
DESCASC
Temp. media en grados centígrados
DESCASC
Racha de viento máxima en m/sg (hora)
DESCASC
Velocidad máxima media en intervalos de 10 minutos(hora)
DESCASC
Precipitaciones diarias en mm
DESCASC
Precipitaciones de 00:00 a 06:00 en mm
DESCASC
Precipitaciones de 06:00 a 12:00 en mm
DESCASC
Precipitaciones de 12:00 a 18:00 en mm
DESCASC
Precipitaciones de 18:00 a 24:00 en mm
DESCASC
14-11-2019 11.7 (00:00) 5.7 (05:20) 8.7 14.72 (06:30) 8.89 (06:30) 13.6 12.4 0.8 0.4 0
13-11-2019 12.8 (15:40) 9.4 (04:50) 11.1 12.78 (06:10) 6.39 (22:20) 8.2 3 5.2 0 0
12-11-2019 12 (13:50) 8.7 (06:50) 10.3 13.89 (13:20) 8.33 (12:00) 9.8 1.8 7.6 0 0.4
11-11-2019 12.5 (13:30) 7.6 (00:00) 10 18.33 (12:40) 11.94 (12:40) 1.6 0 0.8 0 0.8
10-11-2019 9.2 (00:00) 6.1 (00:00) 7.6 19.72 (13:00) 9.72 (02:00) 22.8 8.2 7.4 4.4 2.8
09-11-2019 12.4 (17:20) 8 (00:00) 10.2 20.28 (20:00) 10.56 (20:00) 31.4 6.2 5.2 4 16
08-11-2019 11.8 (15:40) 6.5 (00:00) 9.2 20.83 (16:50) 11.11 (10:50) 52.2 2 8.2 9.2 32.8
07-11-2019 12.4 (00:00) 7 (00:00) 9.7 15.56 (14:10) 9.72 (19:00) 10.8 5.8 2.8 1 1.2
06-11-2019 13.8 (22:00) 10.6 (00:00) 12.2 16.67 (01:20) 10.83 (01:20) 6.6 3.6 1.8 0 1.2
05-11-2019 11.9 (00:20) 8.9 (00:00) 10.4 15.83 (13:00) 10.56 (12:10) 23 0 6 6.2 10.8
04-11-2019 18.4 (05:30) 10.9 (00:00) 14.6 15.56 (05:20) 8.61 (05:40) 11.6 0.2 4.2 6.4 0.8
03-11-2019 17.5 (03:10) 11.3 (00:00) 14.4 25.83 (04:30) 15.83 (06:40) 4.2 2.6 0.2 0 1.4
02-11-2019 18.9 (02:30) 14.3 (00:00) 16.6 10.28 (10:50) 6.39 (10:50) 4.6 0 4.6 0 0
01-11-2019 23.1 (13:30) 16.8 (00:00) 19.9 13.89 (17:20) 7.22 (17:20) 9.2 0.2 0 8.8 0.2
31-10-2019 18.6 (15:10) 15.7 (20:40) 17.2 9.17 (08:00) 5.83 (06:10) 4.6 4.6 0 0 0
30-10-2019 23.5 (13:50) 15.4 (00:00) 19.4 12.78 (23:10) 6.94 (23:10) 0.2 0 0 0 0.2
29-10-2019 20.3 (11:10) 15.3 (00:00) 17.8 4.72 (07:30) 2.22 (12:00) 0 0 0 0 0
28-10-2019 25.9 (15:00) 16.8 (00:00) 21.3 8.06 (11:40) 3.89 (11:40) 0 0 0 0 0
27-10-2019 24.3 (14:10) 19 (00:00) 21.6 13.33 (02:40) 7.22 (09:20) 0 0 0 0 0
26-10-2019 25.5 (15:50) 19.3 (00:00) 22.4 15.56 (12:10) 6.94 (04:00) 0 0 0 0 0
25-10-2019 21.8 (13:30) 14.7 (00:00) 18.2 8.61 (23:59) 5.28 (23:59) 0 0 0 0 0
24-10-2019 16.7 (16:10) 10.4 (00:00) 13.6 17.22 (01:20) 10.28 (01:30) 12.6 4.4 3.2 5 0
23-10-2019 16.5 (14:20) 11.7 (00:00) 14.1 13.89 (21:20) 8.06 (20:50) 1 0 0 0 1
22-10-2019 13.4 (14:10) 11.2 (00:00) 12.3 7.78 (16:40) 4.17 (16:30) 19.8 0 0 8.4 11.4
21-10-2019 16.2 (16:20) 10.6 (00:00) 13.4 9.44 (02:20) 5.83 (00:40) 0.2 0.2 0 0 0
20-10-2019 14.5 (00:00) 10.4 (00:00) 12.4 14.44 (05:20) 8.89 (05:30) 23.6 4.8 13.8 3 2
19-10-2019 21 (13:40) 14.5 (00:00) 17.8 9.17 (04:50) 5 (04:50) 4.6 0 0 0 4.6
18-10-2019 18.4 (14:20) 14 (00:00) 16.2 7.22 (06:50) 5 (06:50) 1.6 1.6 0 0 0

Gráficas

Temp. máximas Temp. mínimas Temp. medias Precipitaciones Rachas de viento máximas Velocidades máximas media en intervalos de 10 minutos

Datos horarios

Fecha y hora oficial Temperatura (ºC) Velocidad del viento (km/h) Dirección del viento Racha (km/h) Dirección de racha Precipitación (mm) Presión (hPa) Tendencia (hPa) Humedad (%)
2019-11-16 23:00:00 7.7 32 Oeste 50 Oeste 0.2 -- -- 83
2019-11-16 22:00:00 7.9 35 Oeste 63 Oeste 0 -- -- 80
2019-11-16 21:00:00 7.6 32 Oeste 56 Oeste 1.6 -- -- 84
2019-11-16 20:00:00 8 27 Oeste 59 Sudoeste 0.4 -- -- 84
2019-11-16 19:00:00 8.2 30 Oeste 63 Sudoeste 0 -- -- 83
2019-11-16 18:00:00 7.9 36 Oeste 60 Oeste 0.6 -- -- 85
2019-11-16 17:00:00 7.9 36 Oeste 55 Sudoeste 0.8 -- -- 87
2019-11-16 16:00:00 8 31 Oeste 53 Oeste 0.8 -- -- 87
2019-11-16 15:00:00 8.3 37 Oeste 64 Oeste 0.4 -- -- 85
2019-11-16 14:00:00 6.9 32 Oeste 56 Oeste 0.8 -- -- 90
2019-11-16 13:00:00 6.1 30 Sudoeste 52 Sudoeste 3.2 -- -- 91
2019-11-16 12:00:00 6.2 26 Sudoeste 58 Sudoeste 4.6 -- -- 91
2019-11-16 11:00:00 6.4 30 Oeste 51 Oeste 3.6 -- -- 89
2019-11-16 10:00:00 6.9 32 Oeste 51 Oeste 1.8 -- -- 86
2019-11-16 09:00:00 8.2 30 Oeste 50 Oeste 0 -- -- 74
2019-11-16 08:00:00 7.9 27 Oeste 48 Oeste 0 -- -- 75
2019-11-16 07:00:00 7.5 26 Oeste 41 Sudoeste 0 -- -- 75
2019-11-16 06:00:00 6.9 28 Oeste 43 Oeste 0 -- -- 75
2019-11-16 05:00:00 6.6 26 Oeste 37 Sudoeste 0 -- -- 76
2019-11-16 04:00:00 6.3 17 Sudoeste 36 Oeste 0 -- -- 76
2019-11-16 03:00:00 6.4 20 Oeste 31 Oeste 0 -- -- 75
2019-11-16 02:00:00 6 18 Sudoeste 29 Oeste 0 -- -- 79
2019-11-16 01:00:00 5.8 19 Sudoeste 30 Oeste 0 -- -- 81
2019-11-16 00:00:00 6.1 20 Oeste 32 Oeste 0 -- -- 81
2019-11-15 23:00:00 6.1 18 Sudoeste 29 Sudoeste 0.2 -- -- 84
2019-11-15 22:00:00 6.1 22 Oeste 35 Sudoeste 0.2 -- -- 84
2019-11-15 21:00:00 5.9 23 Oeste 34 Oeste 0 -- -- 83
2019-11-15 20:00:00 5.7 23 Sudoeste 35 Sudoeste 0 -- -- 85
2019-11-15 19:00:00 5.8 18 Sudoeste 33 Oeste 0.2 -- -- 89
2019-11-15 18:00:00 6.2 18 Oeste 37 Oeste 0.8 -- -- 89
2019-11-15 17:00:00 6.8 22 Oeste 37 Oeste 0 -- -- 87
2019-11-15 16:00:00 8.3 10 Noroeste 24 Sudoeste 0.2 -- -- 82
2019-11-15 15:00:00 8 6 Sudoeste 10 Sudoeste 0 -- -- 84
2019-11-15 14:00:00 7.8 10 Noroeste 30 Norte 0.4 -- -- 81
2019-11-15 13:00:00 9.7 8 Noroeste 28 Norte 0 -- -- 73
2019-11-15 12:00:00 9.3 9 Noroeste 38 Noroeste 0 -- -- 77
2019-11-15 11:00:00 9 18 Noroeste 42 Norte 0.6 -- -- 80
2019-11-15 10:00:00 7.7 19 Oeste 57 Sudoeste 1 -- -- 91
2019-11-15 09:00:00 6.7 31 Oeste 50 Sudoeste 0.2 -- -- 89
2019-11-15 08:00:00 6 28 Oeste 51 Sudoeste 0.6 -- -- 88
2019-11-15 07:00:00 5.8 28 Sudoeste 43 Sudoeste 1.4 -- -- 89
2019-11-15 06:00:00 6.2 25 Sudoeste 45 Sudoeste 0.6 -- -- 86
2019-11-15 05:00:00 6.7 31 Sudoeste 47 Sudoeste 0 -- -- 79
2019-11-15 04:00:00 6.7 25 Sudoeste 54 Oeste 0 -- -- 76
2019-11-15 03:00:00 7.5 24 Oeste 40 Oeste 0 -- -- 68
2019-11-15 02:00:00 7.2 23 Sudoeste 36 Oeste 0 -- -- 73
2019-11-15 01:00:00 7.2 24 Oeste 43 Oeste 0 -- -- 75
2019-11-15 00:00:00 7 24 Oeste 39 Sudoeste 0 -- -- 76
2019-11-14 23:00:00 7 22 Oeste 36 Sudoeste 0 -- -- 77
2019-11-14 22:00:00 6.7 19 Oeste 33 Oeste 0 -- -- 81
2019-11-14 21:00:00 7 21 Oeste 33 Oeste 0 -- -- 82
2019-11-14 20:00:00 6.8 15 Oeste 23 Oeste 0 -- -- 84
2019-11-14 19:00:00 6.5 9 Oeste 17 Sudoeste 0 -- -- 88
2019-11-14 18:00:00 7 14 Oeste 29 Noroeste 0.4 -- -- 88
2019-11-14 17:00:00 8.7 14 Noroeste 27 Noroeste 0 -- -- 82
2019-11-14 16:00:00 9.4 3 Norte 10 Oeste 0 -- -- 82
2019-11-14 15:00:00 8.9 5 Noroeste 24 Noroeste 0 -- -- 83
2019-11-14 14:00:00 10.7 9 Sudoeste 27 Oeste 0 -- -- 60
2019-11-14 13:00:00 10.6 13 Sudoeste 32 Sudoeste 0 -- -- 60
2019-11-14 12:00:00 10.1 10 Sudoeste 19 Sudoeste 0 -- -- 65
2019-11-14 11:00:00 9 6 Sudoeste 31 Oeste 0 -- -- 69
2019-11-14 10:00:00 8.2 17 Oeste 35 Sudoeste 0 -- -- 68
2019-11-14 09:00:00 6.5 15 Oeste 39 Sudoeste 0.6 -- -- 78
2019-11-14 08:00:00 6.1 21 Sudoeste 35 Sudoeste 0.2 -- -- 80
2019-11-14 07:00:00 6.4 25 Oeste 53 Oeste 0 -- -- 81
2019-11-14 06:00:00 6 31 Oeste 51 Sudoeste 0.2 -- -- 85
2019-11-14 05:00:00 5.8 20 Oeste 48 Sudoeste 2.6 -- -- 92
2019-11-14 04:00:00 6.3 15 Oeste 38 Oeste 2.8 -- -- 92
2019-11-14 03:00:00 7.2 18 Oeste 33 Oeste 2.6 -- -- 92
2019-11-14 02:00:00 7.9 25 Oeste 44 Oeste 2.4 -- -- 91
2019-11-14 01:00:00 9.3 22 Oeste 48 Oeste 1.8 -- -- 90
2019-11-14 00:00:00 11.7 14 Sudoeste 29 Oeste 0 -- -- 71
2019-11-13 23:00:00 11.7 18 Sudoeste 33 Sudoeste 0 -- -- 70
2019-11-13 22:00:00 11.6 19 Sudoeste 34 Sudoeste 0 -- -- 72
2019-11-13 21:00:00 11.4 17 Sudoeste 31 Sudoeste 0 -- -- 75
2019-11-13 20:00:00 11.4 18 Oeste 30 Oeste 0 -- -- 73
2019-11-13 19:00:00 10.9 16 Oeste 28 Sudoeste 0 -- -- 75
2019-11-13 18:00:00 10.4 13 Sudoeste 25 Oeste 0 -- -- 81
2019-11-13 17:00:00 11 19 Oeste 28 Oeste 0 -- -- 80
2019-11-13 16:00:00 12.1 11 Oeste 22 Oeste 0 -- -- 71
2019-11-13 15:00:00 12.1 14 Oeste 27 Oeste 0 -- -- 72
2019-11-13 14:00:00 12 14 Oeste 24 Oeste 0 -- -- 73
2019-11-13 13:00:00 12.4 9 Noroeste 28 Oeste 0 -- -- 77
2019-11-13 12:00:00 12.2 17 Oeste 27 Oeste 0 -- -- 82
2019-11-13 11:00:00 10.7 8 Oeste 15 Oeste 0.6 -- -- 95
2019-11-13 10:00:00 10.1 6 Oeste 11 Oeste 0.4 -- -- 95
2019-11-13 09:00:00 10.1 8 Sudeste 19 Este 3.4 -- -- 95
2019-11-13 08:00:00 10.5 8 Este 22 Este 0 -- -- 95
2019-11-13 07:00:00 10.6 13 Nordeste 46 Nordeste 0.8 -- -- 95
2019-11-13 06:00:00 10.2 11 Sudoeste 30 Nordeste 0.8 -- -- 95
2019-11-13 05:00:00 9.4 5 Oeste 9 Sudoeste 1.2 -- -- 93
2019-11-13 04:00:00 9.7 6 Sudoeste 9 Sudoeste 1 -- -- 89
2019-11-13 03:00:00 10.4 0 Calma 7 Sudeste 0 -- -- 82
2019-11-13 02:00:00 10.3 5 Sur 8 Sur 0 -- -- 83
2019-11-13 01:00:00 10.1 4 Sudeste 13 Sudoeste 0 -- -- 84
2019-11-13 00:00:00 10 5 Sur 13 Sudeste 0 -- -- 84
2019-11-12 23:00:00 10.1 5 Sudeste 11 Sudeste 0 -- -- 85
2019-11-12 22:00:00 10.4 4 Sur 18 Oeste 0 -- -- 83
2019-11-12 21:00:00 10.2 6 Sudoeste 17 Sudoeste 0.2 -- -- 84
2019-11-12 20:00:00 10.7 10 Sudoeste 14 Sudoeste 0.2 -- -- 81
2019-11-12 19:00:00 11.2 8 Sudoeste 13 Sudoeste 0 -- -- 77
2019-11-12 18:00:00 11.1 8 Sudoeste 11 Sudoeste 0 -- -- 78
2019-11-12 17:00:00 11.5 4 Sudoeste 12 Sudoeste 0 -- -- 78
2019-11-12 16:00:00 11.4 8 Oeste 31 Oeste 0 -- -- 78
2019-11-12 15:00:00 11.8 18 Oeste 35 Oeste 0 -- -- 76
2019-11-12 14:00:00 11.8 20 Oeste 50 Oeste 0 -- -- 75
2019-11-12 13:00:00 11.2 26 Oeste 48 Oeste 0 -- -- 81
2019-11-12 12:00:00 10.5 30 Oeste 42 Oeste 0.4 -- -- 84
2019-11-12 11:00:00 9.6 22 Oeste 43 Oeste 0.2 -- -- 88
2019-11-12 10:00:00 9.6 28 Oeste 43 Sudoeste 1 -- -- 88
2019-11-12 09:00:00 8.9 23 Oeste 39 Sudoeste 2.2 -- -- 91
2019-11-12 08:00:00 8.7 24 Sudoeste 38 Oeste 1.4 -- -- 91
2019-11-12 07:00:00 8.7 22 Oeste 40 Oeste 2.4 -- -- 91
2019-11-12 06:00:00 9 22 Oeste 38 Oeste 0.8 -- -- 90
2019-11-12 05:00:00 9 22 Oeste 42 Sudoeste 0.6 -- -- 89
2019-11-12 04:00:00 9.1 25 Oeste 42 Sudoeste 0 -- -- 87
2019-11-12 03:00:00 8.9 23 Oeste 38 Sudoeste 0.4 -- -- 88
2019-11-12 02:00:00 9.2 21 Oeste 40 Oeste 0 -- -- 84
2019-11-12 01:00:00 9.6 22 Oeste 31 Oeste 0 -- -- 83
2019-11-12 00:00:00 10.2 18 Oeste 29 Oeste 0 -- -- 74
2019-11-11 23:00:00 10.6 17 Oeste 28 Oeste 0 -- -- 73
2019-11-11 22:00:00 10.7 14 Noroeste 30 Oeste 0 -- -- 74
2019-11-11 21:00:00 10.4 17 Noroeste 55 Oeste 0.8 -- -- 74
2019-11-11 20:00:00 11.6 22 Noroeste 44 Oeste 0 -- -- 68
2019-11-11 19:00:00 10.8 21 Oeste 45 Noroeste 0 -- -- 70
2019-11-11 18:00:00 11.5 7 Noroeste 46 Oeste 0 -- -- 77
2019-11-11 17:00:00 12.1 21 Noroeste 51 Noroeste 0 -- -- 65
2019-11-11 16:00:00 12.1 18 Noroeste 45 Oeste 0 -- -- 68
2019-11-11 15:00:00 11.9 25 Noroeste 54 Oeste 0 -- -- 71
2019-11-11 14:00:00 12.3 27 Noroeste 62 Noroeste 0 -- -- 75
2019-11-11 13:00:00 11.7 33 Noroeste 66 Oeste 0 -- -- 91
2019-11-11 12:00:00 10.4 21 Oeste 33 Oeste 0.2 -- -- 92
2019-11-11 11:00:00 9.4 16 Sudoeste 28 Sudoeste 0.6 -- -- 90
2019-11-11 10:00:00 9.8 19 Sudoeste 28 Sudoeste 0 -- -- 84
2019-11-11 09:00:00 9.9 15 Sudoeste 28 Sudoeste 0 -- -- 82
2019-11-11 08:00:00 9.7 17 Sudoeste 34 Oeste 0 -- -- 81
2019-11-11 07:00:00 9.3 16 Sudoeste 29 Oeste 0 -- -- 84
2019-11-11 06:00:00 9.1 16 Sudoeste 38 Sudoeste 0 -- -- 88
2019-11-11 05:00:00 8.8 22 Sudoeste 34 Sudoeste 0 -- -- 90
2019-11-11 04:00:00 8.9 15 Sudoeste 27 Sudoeste 0 -- -- 86
2019-11-11 03:00:00 8.8 18 Sudoeste 28 Sudoeste 0 -- -- 85
2019-11-11 02:00:00 8.4 16 Sudoeste 29 Sudoeste 0 -- -- 86
2019-11-11 01:00:00 8.2 15 Sudoeste 29 Sudoeste 0 -- -- 86
2019-11-11 00:00:00 7.6 18 Sudoeste 30 Sudoeste 0 -- -- 89
2019-11-10 23:00:00 7.6 19 Sudoeste 27 Oeste 0.2 -- -- 90
2019-11-10 22:00:00 7.3 12 Oeste 33 Oeste 0.8 -- -- 91
2019-11-10 21:00:00 7.2 13 Sudoeste 44 Noroeste 1.8 -- -- 91
2019-11-10 20:00:00 7.9 9 Oeste 30 Sudoeste 0 -- -- 87
2019-11-10 19:00:00 8 15 Sudoeste 21 Sudoeste 0 -- -- 85
2019-11-10 18:00:00 8.1 15 Oeste 29 Sudoeste 0 -- -- 85
2019-11-10 17:00:00 8.7 10 Sudoeste 27 Oeste 0.4 -- -- 81
2019-11-10 16:00:00 9.1 13 Oeste 28 Oeste 0 -- -- 79
2019-11-10 15:00:00 7.9 19 Oeste 34 Oeste 0.6 -- -- 84
2019-11-10 14:00:00 8.3 10 Noroeste 47 Noroeste 2 -- -- 90
2019-11-10 13:00:00 7.4 30 Oeste 71 Oeste 1.4 -- -- 85
2019-11-10 12:00:00 8.6 22 Oeste 40 Oeste 0.2 -- -- 85
2019-11-10 11:00:00 8.2 24 Oeste 40 Oeste 1 -- -- 84
2019-11-10 10:00:00 6.7 26 Oeste 39 Sudoeste 2 -- -- 89
2019-11-10 09:00:00 6.8 22 Sudoeste 55 Oeste 1.4 -- -- 90
2019-11-10 08:00:00 7.6 25 Oeste 52 Oeste 0.2 -- -- 83
2019-11-10 07:00:00 6.9 22 Oeste 42 Sudoeste 2.6 -- -- 91
2019-11-10 06:00:00 6.4 17 Oeste 39 Sudoeste 1.4 -- -- 91
2019-11-10 05:00:00 6.6 25 Oeste 56 Sudoeste 4.2 -- -- 88
2019-11-10 04:00:00 7.4 26 Oeste 50 Sudoeste 0.8 -- -- 86
2019-11-10 03:00:00 7.5 25 Sudoeste 43 Oeste 0.6 -- -- 88
2019-11-10 02:00:00 8.7 35 Oeste 69 Noroeste 1.2 -- -- 83
2019-11-10 01:00:00 9.1 18 Oeste 41 Oeste 0 -- -- 81
2019-11-10 00:00:00 9.2 22 Oeste 38 Oeste 0 -- -- 81
2019-11-09 23:00:00 8.8 20 Oeste 32 Oeste 0.4 -- -- 88
2019-11-09 22:00:00 8.3 15 Oeste 48 Oeste 5 -- -- 89
2019-11-09 21:00:00 8.7 24 Oeste 51 Oeste 2.8 -- -- 92
2019-11-09 20:00:00 8.9 38 Oeste 73 Oeste 6 -- -- 90
2019-11-09 19:00:00 10.5 32 Oeste 63 Oeste 1.8 -- -- 87
2019-11-09 18:00:00 11.6 30 Oeste 57 Noroeste 0.6 -- -- 83
2019-11-09 17:00:00 12 19 Oeste 51 Oeste 0.2 -- -- 85
2019-11-09 16:00:00 10.7 28 Oeste 54 Oeste 0.4 -- -- 89
2019-11-09 15:00:00 10.5 20 Sudoeste 44 Sudoeste 1.6 -- -- 87
2019-11-09 14:00:00 10.7 24 Sudoeste 46 Sudoeste 0.4 -- -- 81
2019-11-09 13:00:00 10.6 13 Sudoeste 29 Sudoeste 0.8 -- -- 82
2019-11-09 12:00:00 11.4 2 Sudoeste 8 Norte 0 -- -- 80
2019-11-09 11:00:00 10.9 10 Sudoeste 25 Oeste 0 -- -- 76
2019-11-09 10:00:00 10.2 18 Sudoeste 35 Sudoeste 0 -- -- 81
2019-11-09 09:00:00 9.4 24 Sudoeste 45 Oeste 0 -- -- 90
2019-11-09 08:00:00 9.2 27 Oeste 42 Oeste 2 -- -- 92
2019-11-09 07:00:00 9.2 17 Sudoeste 27 Oeste 3.2 -- -- 93
2019-11-09 06:00:00 9.4 16 Sudoeste 26 Noroeste 0.2 -- -- 92
2019-11-09 05:00:00 9.3 15 Oeste 39 Oeste 1.4 -- -- 92
2019-11-09 04:00:00 9.1 23 Oeste 37 Oeste 0.4 -- -- 91
2019-11-09 03:00:00 9.6 21 Oeste 42 Sudoeste 0.8 -- -- 86
2019-11-09 02:00:00 9.4 18 Oeste 49 Noroeste 1 -- -- 90
2019-11-09 01:00:00 9.6 21 Noroeste 45 Oeste 2.4 -- -- 90
2019-11-09 00:00:00 8.9 27 Oeste 44 Oeste 7.4 -- -- 90
2019-11-08 23:00:00 9.1 22 Oeste 56 Noroeste 5 -- -- 92
2019-11-08 22:00:00 9.3 28 Noroeste 60 Noroeste 7.6 -- -- 92
2019-11-08 21:00:00 9.2 33 Oeste 54 Oeste 7.8 -- -- 91
2019-11-08 20:00:00 10.6 28 Noroeste 58 Oeste 1.2 -- -- 89
2019-11-08 19:00:00 10.3 22 Noroeste 57 Oeste 3.8 -- -- 88
2019-11-08 18:00:00 11.5 16 Noroeste 64 Noroeste 0.2 -- -- 86
2019-11-08 17:00:00 8.7 22 Noroeste 75 Noroeste 6 -- -- 93
2019-11-08 16:00:00 11.3 12 Noroeste 48 Oeste 0.4 -- -- 83
2019-11-08 15:00:00 10 22 Oeste 55 Oeste 1.8 -- -- 90
2019-11-08 14:00:00 9.5 26 Oeste 51 Oeste 0.6 -- -- 87
2019-11-08 13:00:00 9.2 27 Oeste 53 Oeste 0.2 -- -- 85
2019-11-08 12:00:00 8.6 36 Oeste 69 Oeste 2.4 -- -- 89
2019-11-08 11:00:00 7.8 30 Oeste 67 Oeste 2.8 -- -- 88
2019-11-08 10:00:00 8 36 Oeste 68 Oeste 1.2 -- -- 87
2019-11-08 09:00:00 7.8 33 Oeste 66 Sudoeste 0.6 -- -- 85
2019-11-08 08:00:00 7.7 33 Sudoeste 56 Oeste 0.6 -- -- 84
2019-11-08 07:00:00 7.3 30 Sudoeste 62 Oeste 0.6 -- -- 84
2019-11-08 06:00:00 6.9 30 Sudoeste 57 Sudoeste 0.6 -- -- 83
2019-11-08 05:00:00 6.9 29 Oeste 55 Sudoeste 0.2 -- -- 83
2019-11-08 04:00:00 6.8 30 Sudoeste 55 Sudoeste 0.6 -- -- 83
2019-11-08 03:00:00 6.6 30 Oeste 49 Sudoeste 0.4 -- -- 82
2019-11-08 02:00:00 7.4 29 Oeste 51 Oeste 0.2 -- -- 76
2019-11-08 01:00:00 9 24 Oeste 41 Oeste 0 -- -- 59
2019-11-08 00:00:00 8.9 27 Oeste 42 Sudoeste 0 -- -- 60
2019-11-07 23:00:00 8.5 23 Oeste 48 Oeste 0 -- -- 63
2019-11-07 22:00:00 8.6 31 Oeste 54 Oeste 0 -- -- 65
2019-11-07 21:00:00 7.8 27 Oeste 45 Sudoeste 0 -- -- 74
2019-11-07 20:00:00 7.2 25 Oeste 50 Noroeste 0.8 -- -- 88
2019-11-07 19:00:00 7.7 35 Oeste 52 Oeste 0.4 -- -- 84
2019-11-07 18:00:00 8.7 25 Oeste 47 Oeste 0 -- -- 78
2019-11-07 17:00:00 8.8 18 Oeste 41 Sudoeste 0.2 -- -- 78
2019-11-07 16:00:00 9.8 23 Oeste 48 Oeste 0 -- -- 75
2019-11-07 15:00:00 10.8 17 Oeste 56 Noroeste 0.2 -- -- 73
2019-11-07 14:00:00 11.6 24 Oeste 45 Oeste 0 -- -- 69
2019-11-07 13:00:00 10.2 27 Oeste 44 Oeste 0.6 -- -- 77
2019-11-07 12:00:00 8.8 12 Oeste 41 Oeste 0.6 -- -- 84
2019-11-07 11:00:00 7.7 28 Oeste 50 Oeste 0.8 -- -- 86
2019-11-07 10:00:00 8.6 26 Oeste 55 Oeste 0.6 -- -- 83
2019-11-07 09:00:00 9.1 23 Oeste 49 Sudoeste 0.2 -- -- 85
2019-11-07 08:00:00 9.1 18 Oeste 30 Sudoeste 0.2 -- -- 89
2019-11-07 07:00:00 9.6 12 Oeste 36 Sudoeste 0.4 -- -- 91
2019-11-07 06:00:00 10 18 Oeste 37 Sudoeste 0.8 -- -- 90
2019-11-07 05:00:00 10.5 18 Oeste 36 Oeste 0.4 -- -- 89
2019-11-07 04:00:00 10.9 23 Oeste 46 Oeste 0 -- -- 84
2019-11-07 03:00:00 11.4 27 Oeste 48 Noroeste 1.2 -- -- 89
2019-11-07 02:00:00 11.9 22 Oeste 42 Sudoeste 2.2 -- -- 92
2019-11-07 01:00:00 11.8 23 Sudoeste 36 Oeste 1.2 -- -- 90
2019-11-07 00:00:00 12.4 25 Sudoeste 40 Oeste 0.8 -- -- 85
2019-11-06 23:00:00 12.7 24 Sudoeste 41 Sudoeste 0.4 -- -- 79
2019-11-06 22:00:00 13.8 19 Oeste 43 Oeste 0 -- -- 65
2019-11-06 21:00:00 13.3 13 Oeste 21 Sudoeste 0 -- -- 67
2019-11-06 20:00:00 13 7 Oeste 16 Sudoeste 0 -- -- 69
2019-11-06 19:00:00 13 10 Oeste 18 Sudoeste 0 -- -- 72
2019-11-06 18:00:00 12.9 12 Sudoeste 18 Sudoeste 0 -- -- 71
2019-11-06 17:00:00 13 9 Sudoeste 22 Sudoeste 0 -- -- 74
2019-11-06 16:00:00 13.3 11 Oeste 34 Oeste 0 -- -- 74
2019-11-06 15:00:00 13.4 23 Oeste 37 Sudoeste 0 -- -- 72
2019-11-06 14:00:00 13.1 20 Oeste 46 Oeste 0 -- -- 79
2019-11-06 13:00:00 12.2 27 Oeste 43 Sudoeste 0 -- -- 81
2019-11-06 12:00:00 11.6 22 Sudoeste 42 Oeste 0.2 -- -- 87
2019-11-06 11:00:00 11.1 25 Oeste 40 Oeste 0.6 -- -- 87
2019-11-06 10:00:00 11.4 23 Oeste 37 Oeste 0 -- -- 86
2019-11-06 09:00:00 10.7 24 Oeste 42 Sudoeste 0.2 -- -- 88
2019-11-06 08:00:00 10.6 21 Oeste 40 Oeste 0.8 -- -- 87
2019-11-06 07:00:00 11 22 Oeste 42 Sudoeste 0 -- -- 84
2019-11-06 06:00:00 11.1 24 Oeste 41 Oeste 0 -- -- 83
2019-11-06 05:00:00 11 18 Oeste 42 Oeste 0.6 -- -- 87
2019-11-06 04:00:00 11.2 29 Oeste 44 Oeste 0.6 -- -- 87
2019-11-06 03:00:00 11.5 28 Oeste 48 Oeste 0 -- -- 82
2019-11-06 02:00:00 10.8 21 Oeste 60 Oeste 1.6 -- -- 91
2019-11-06 01:00:00 12.3 27 Oeste 47 Oeste 0.8 -- -- 81
2019-11-06 00:00:00 11.3 24 Oeste 54 Noroeste 0.8 -- -- 89
2019-11-05 23:00:00 11.5 31 Oeste 52 Noroeste 5 -- -- 88
2019-11-05 22:00:00 11.5 23 Oeste 51 Oeste 0.6 -- -- 87
2019-11-05 21:00:00 11.3 28 Oeste 46 Oeste 0.8 -- -- 84
2019-11-05 20:00:00 11.6 25 Oeste 44 Oeste 0.2 -- -- 85
2019-11-05 19:00:00 11.1 27 Oeste 47 Oeste 3.4 -- -- 89
2019-11-05 18:00:00 11.2 27 Oeste 50 Noroeste 1.8 -- -- 87
2019-11-05 17:00:00 11.5 29 Oeste 46 Oeste 0.8 -- -- 85
2019-11-05 16:00:00 10.6 26 Oeste 52 Oeste 1.2 -- -- 89
2019-11-05 15:00:00 10.5 26 Sudoeste 49 Sudoeste 1 -- -- 90
2019-11-05 14:00:00 9.9 34 Oeste 53 Sudoeste 0.8 -- -- 85
2019-11-05 13:00:00 11 33 Oeste 57 Oeste 0.6 -- -- 80
2019-11-05 12:00:00 10.1 37 Oeste 57 Oeste 1.2 -- -- 84
2019-11-05 11:00:00 9.1 33 Sudoeste 56 Sudoeste 1.6 -- -- 87
2019-11-05 10:00:00 9 24 Sudoeste 46 Sudoeste 2.4 -- -- 86
2019-11-05 09:00:00 9.6 29 Oeste 47 Oeste 0.8 -- -- 80
2019-11-05 08:00:00 11.6 22 Sudoeste 42 Oeste 0 -- -- 61
2019-11-05 07:00:00 11.7 29 Oeste 41 Oeste 0 -- -- 61
2019-11-05 06:00:00 11.4 24 Oeste 40 Oeste 0 -- -- 62
2019-11-05 05:00:00 11.3 24 Oeste 43 Sudoeste 0 -- -- 62
2019-11-05 04:00:00 11.3 23 Oeste 34 Sudoeste 0 -- -- 63
2019-11-05 03:00:00 11.5 19 Oeste 30 Oeste 0 -- -- 66
2019-11-05 02:00:00 11.1 16 Oeste 30 Oeste 0 -- -- 72
2019-11-05 01:00:00 10.8 15 Sudoeste 35 Sudoeste 0 -- -- 75
2019-11-05 00:00:00 11.8 17 Oeste 31 Sudoeste 0 -- -- 70
2019-11-04 23:00:00 11.4 20 Oeste 35 Sudoeste 0.2 -- -- 75
2019-11-04 22:00:00 11.2 17 Sudoeste 32 Sudoeste 0.2 -- -- 82
2019-11-04 21:00:00 11.4 20 Oeste 33 Oeste 0 -- -- 81
2019-11-04 20:00:00 11.6 16 Oeste 32 Sudoeste 0.2 -- -- 81
2019-11-04 19:00:00 11.4 12 Oeste 31 Oeste 0.2 -- -- 87
2019-11-04 18:00:00 11.9 17 Oeste 34 Oeste 0 -- -- 85
2019-11-04 17:00:00 12.4 21 Oeste 38 Oeste 0 -- -- 82
2019-11-04 16:00:00 12.6 19 Oeste 39 Oeste 0.6 -- -- 87
2019-11-04 15:00:00 12.3 20 Oeste 52 Oeste 1.4 -- -- 90
2019-11-04 14:00:00 12.9 8 Oeste 35 Oeste 1.8 -- -- 93
2019-11-04 13:00:00 13.1 12 Oeste 24 Sudoeste 2.6 -- -- 94
2019-11-04 12:00:00 13.1 18 Oeste 36 Sudoeste 1 -- -- 92
2019-11-04 11:00:00 13 20 Oeste 38 Oeste 2.6 -- -- 92
2019-11-04 10:00:00 14.2 14 Noroeste 37 Oeste 0.6 -- -- 92
2019-11-04 09:00:00 15.4 12 Noroeste 32 Oeste 0 -- -- 88
2019-11-04 08:00:00 16.9 8 Noroeste 36 Oeste 0 -- -- 75
2019-11-04 07:00:00 17.6 26 Oeste 54 Sudoeste 0 -- -- 61
2019-11-04 06:00:00 18.3 28 Sudoeste 56 Sudoeste 0 -- -- 59
2019-11-04 05:00:00 18.3 26 Sudoeste 49 Oeste 0 -- -- 60
2019-11-04 04:00:00 18 24 Sudoeste 39 Sudoeste 0 -- -- 63
2019-11-04 03:00:00 17.1 12 Sudoeste 33 Sudoeste 0.2 -- -- 67
2019-11-04 02:00:00 16.2 17 Sudoeste 35 Oeste 0 -- -- 75
2019-11-04 01:00:00 16.3 18 Sudoeste 38 Sudoeste 0 -- -- 71
2019-11-04 00:00:00 16.2 27 Sudoeste 48 Sudoeste 0 -- -- 71
2019-11-03 23:00:00 15.2 26 Sudoeste 47 Oeste 0 -- -- 74
2019-11-03 22:00:00 13.3 31 Sudoeste 54 Sudoeste 0.4 -- -- 83
2019-11-03 21:00:00 12.9 17 Sudoeste 28 Oeste 1 -- -- 82
2019-11-03 20:00:00 14.5 8 Sudoeste 31 Oeste 0 -- -- 66
2019-11-03 19:00:00 15.4 13 Sudoeste 26 Sudoeste 0 -- -- 55
2019-11-03 18:00:00 15.1 17 Sudoeste 28 Oeste 0 -- -- 59
2019-11-03 17:00:00 14.8 10 Oeste 39 Oeste 0 -- -- 61
2019-11-03 16:00:00 14.9 16 Oeste 31 Oeste 0 -- -- 60
2019-11-03 15:00:00 14.7 23 Oeste 57 Oeste 0 -- -- 62
2019-11-03 14:00:00 14.1 30 Oeste 72 Oeste 0 -- -- 64
2019-11-03 13:00:00 14.5 35 Oeste 69 Oeste 0 -- -- 63
2019-11-03 12:00:00 13.2 28 Oeste 75 Oeste 0 -- -- 69
2019-11-03 11:00:00 12.8 30 Oeste 70 Oeste 0 -- -- 72
2019-11-03 10:00:00 11.8 28 Oeste 76 Oeste 0.2 -- -- 79
2019-11-03 09:00:00 11.5 36 Oeste 87 Oeste 0 -- -- 76
2019-11-03 08:00:00 11.8 41 Oeste 77 Oeste 0 -- -- 74
2019-11-03 07:00:00 12.1 44 Oeste 91 Oeste 0 -- -- 73
2019-11-03 06:00:00 12 51 Oeste 91 Oeste 0.4 -- -- 74
2019-11-03 05:00:00 12.2 40 Oeste 93 Oeste 1.2 -- -- 87
2019-11-03 04:00:00 14 46 Oeste 81 Noroeste 1 -- -- 80
2019-11-03 03:00:00 17.4 24 Sudoeste 49 Sudoeste 0 -- -- 56
2019-11-03 02:00:00 17.3 24 Sudoeste 39 Oeste 0 -- -- 56
2019-11-03 01:00:00 17.1 21 Oeste 40 Oeste 0 -- -- 56
2019-11-03 00:00:00 16.3 10 Oeste 21 Oeste 0 -- -- 60
2019-11-02 23:00:00 15.9 4 Oeste 23 Sudoeste 0 -- -- 68
2019-11-02 22:00:00 14.5 6 Sudeste 9 Sudeste 0 -- -- 90
2019-11-02 21:00:00 14.5 3 Sur 9 Sur 0 -- -- 89
2019-11-02 20:00:00 14.6 5 Sur 8 Sur 0 -- -- 89
2019-11-02 19:00:00 14.9 5 Este 12 Este 0 -- -- 89
2019-11-02 18:00:00 15.1 9 Sur 16 Sudoeste 0 -- -- 86
2019-11-02 17:00:00 15.4 11 Sudoeste 19 Sudoeste 0 -- -- 86
2019-11-02 16:00:00 15.7 8 Oeste 13 Sudoeste 0 -- -- 87
2019-11-02 15:00:00 15.9 8 Oeste 12 Oeste 0 -- -- 88
2019-11-02 14:00:00 16.2 2 Oeste 18 Oeste 0 -- -- 86
2019-11-02 13:00:00 15.6 11 Sudoeste 28 Sudoeste 0 -- -- 88
2019-11-02 12:00:00 15.3 13 Oeste 32 Oeste 0 -- -- 91
2019-11-02 11:00:00 14.8 18 Oeste 37 Oeste 1.2 -- -- 94
2019-11-02 10:00:00 15.1 14 Oeste 23 Oeste 1.4 -- -- 94
2019-11-02 09:00:00 15.5 2 Noroeste 9 Oeste 1.8 -- -- 94
2019-11-02 08:00:00 15.8 7 Oeste 13 Sudoeste 0.2 -- -- 91
2019-11-02 07:00:00 15.9 8 Oeste 15 Oeste 0 -- -- 91
2019-11-02 06:00:00 16.2 12 Oeste 16 Oeste 0 -- -- 89
2019-11-02 05:00:00 16.4 7 Oeste 29 Oeste 0 -- -- 87
2019-11-02 04:00:00 17 17 Oeste 28 Noroeste 0 -- -- 84
2019-11-02 03:00:00 18.6 18 Oeste 32 Oeste 0 -- -- 71
2019-11-02 02:00:00 18.4 15 Oeste 22 Sudoeste 0 -- -- 72
2019-11-02 01:00:00 18.3 5 Oeste 9 Oeste 0 -- -- 76
2019-11-02 00:00:00 18.4 4 Oeste 12 Sur 0 -- -- 77
2019-11-01 23:00:00 18.8 7 Sur 13 Sudoeste 0 -- -- 79
2019-11-01 22:00:00 18.4 6 Sur 15 Sur 0 -- -- 81
2019-11-01 21:00:00 18.1 9 Sudoeste 16 Sudoeste 0 -- -- 82
2019-11-01 20:00:00 18.6 8 Sudoeste 26 Sudoeste 0 -- -- 79
2019-11-01 19:00:00 18.8 20 Oeste 35 Sudoeste 0.2 -- -- 78
2019-11-01 18:00:00 18 19 Sudoeste 50 Sudoeste 1.4 -- -- 86
2019-11-01 17:00:00 17.4 19 Oeste 37 Oeste 7.4 -- -- 92
2019-11-01 16:00:00 21.1 3 Noroeste 7 Nordeste 0 -- -- 75
2019-11-01 15:00:00 22.3 0 Calma 4 Este 0 -- -- 73
2019-11-01 14:00:00 22.9 3 Oeste 17 Oeste 0 -- -- 67
2019-11-01 13:00:00 22.3 9 Oeste 22 Oeste 0 -- -- 68
2019-11-01 12:00:00 21.4 11 Sudoeste 21 Sudoeste 0 -- -- 70
2019-11-01 11:00:00 21.4 15 Oeste 23 Oeste 0 -- -- 68
2019-11-01 10:00:00 19.3 10 Sudoeste 25 Oeste 0 -- -- 78
2019-11-01 09:00:00 19.5 6 Sudoeste 15 Sudoeste 0 -- -- 75
2019-11-01 08:00:00 19.3 11 Sudoeste 24 Sudoeste 0 -- -- 76
2019-11-01 07:00:00 18.9 13 Sudoeste 25 Sudoeste 0 -- -- 79
2019-11-01 06:00:00 18.8 16 Sudoeste 31 Oeste 0 -- -- 81
2019-11-01 05:00:00 18.3 19 Sudoeste 36 Oeste 0 -- -- 82
2019-11-01 04:00:00 18.2 12 Oeste 22 Sudoeste 0 -- -- 75
2019-11-01 03:00:00 17.2 4 Sur 10 Sudoeste 0 -- -- 79
2019-11-01 02:00:00 16.9 4 Sur 12 Sudoeste 0.2 -- -- 82
2019-11-01 01:00:00 17.4 6 Sudoeste 12 Sudoeste 0 -- -- 77
2019-11-01 00:00:00 17 9 Sur 13 Sur 0 -- -- 79
2019-10-31 23:00:00 16.6 5 Sur 11 Sur 0 -- -- 80
2019-10-31 22:00:00 16.2 6 Sur 12 Sur 0 -- -- 85
2019-10-31 21:00:00 15.9 4 Sur 10 Sur 0 -- -- 88
2019-10-31 20:00:00 15.9 5 Sur 8 Sur 0 -- -- 87
2019-10-31 19:00:00 16.5 3 Sudeste 6 Sur 0 -- -- 88
2019-10-31 18:00:00 17.1 3 Sur 6 Sur 0 -- -- 86
2019-10-31 17:00:00 18.3 3 Nordeste 8 Noroeste 0 -- -- 84
2019-10-31 16:00:00 18 3 Noroeste 9 Noroeste 0 -- -- 85
2019-10-31 15:00:00 18.4 3 Noroeste 10 Oeste 0 -- -- 83
2019-10-31 14:00:00 17.4 8 Oeste 17 Noroeste 0 -- -- 86
2019-10-31 13:00:00 17.4 9 Noroeste 21 Oeste 0 -- -- 85
2019-10-31 12:00:00 17.1 6 Oeste 17 Oeste 0 -- -- 89
2019-10-31 11:00:00 17.1 5 Noroeste 20 Oeste 0 -- -- 86
2019-10-31 10:00:00 16.7 14 Oeste 27 Oeste 0 -- -- 85
2019-10-31 09:00:00 16.1 19 Oeste 28 Oeste 0 -- -- 87
2019-10-31 08:00:00 16.1 21 Oeste 33 Oeste 0 -- -- 88
2019-10-31 07:00:00 15.9 19 Oeste 29 Oeste 0 -- -- 91
2019-10-31 06:00:00 16 18 Oeste 27 Oeste 0.2 -- -- 94
2019-10-31 05:00:00 15.8 19 Oeste 30 Oeste 3.4 -- -- 94
2019-10-31 04:00:00 16.4 16 Oeste 27 Oeste 0.8 -- -- 92
2019-10-31 03:00:00 17 13 Oeste 21 Oeste 0 -- -- 85
2019-10-31 02:00:00 16.8 10 Sudoeste 21 Oeste 0 -- -- 86
2019-10-31 01:00:00 16.6 12 Sudoeste 29 Oeste 0.2 -- -- 89
2019-10-31 00:00:00 17.4 15 Oeste 46 Noroeste 0.2 -- -- 84
2019-10-30 23:00:00 19.4 23 Oeste 40 Noroeste 0 -- -- 73
2019-10-30 22:00:00 19.8 18 Sudoeste 25 Oeste 0 -- -- 64
2019-10-30 21:00:00 19.1 17 Sudoeste 38 Oeste 0 -- -- 69
2019-10-30 20:00:00 20.7 19 Oeste 33 Sudoeste 0 -- -- 59
2019-10-30 19:00:00 20.8 16 Oeste 32 Oeste 0 -- -- 60
2019-10-30 18:00:00 20.9 14 Sudoeste 29 Sudoeste 0 -- -- 59
2019-10-30 17:00:00 21.1 11 Sudoeste 21 Sudoeste 0 -- -- 62
2019-10-30 16:00:00 21.3 0 Calma 6 Sudeste 0 -- -- 72
2019-10-30 15:00:00 21.7 2 Este 14 Oeste 0 -- -- 71
2019-10-30 14:00:00 23.2 6 Oeste 13 Oeste 0 -- -- 59
2019-10-30 13:00:00 22.3 4 Sudoeste 13 Sudoeste 0 -- -- 61
2019-10-30 12:00:00 21.3 4 Oeste 17 Sudoeste 0 -- -- 66
2019-10-30 11:00:00 20 6 Sudeste 14 Sur 0 -- -- 65
2019-10-30 10:00:00 19 3 Oeste 15 Sudoeste 0 -- -- 66
2019-10-30 09:00:00 18.2 7 Sudoeste 21 Sudoeste 0 -- -- 66
2019-10-30 08:00:00 17.2 12 Sudoeste 19 Sudoeste 0 -- -- 67
2019-10-30 07:00:00 16.7 9 Sudoeste 13 Sur 0 -- -- 69
2019-10-30 06:00:00 16.6 3 Sudoeste 8 Sudoeste 0 -- -- 69
2019-10-30 05:00:00 16.3 2 Sudeste 9 Sur 0 -- -- 76
2019-10-30 04:00:00 16.3 2 Este 7 Sudoeste 0 -- -- 78
2019-10-30 03:00:00 15.8 0 Calma 8 Sur 0 -- -- 79
2019-10-30 02:00:00 15.9 0 Calma 5 Sudoeste 0 -- -- 80
2019-10-30 01:00:00 15.6 2 Sudoeste 4 Este 0 -- -- 83
2019-10-30 00:00:00 15.7 3 Sudoeste 4 Oeste 0 -- -- 90
2019-10-29 23:00:00 15.8 3 Este 5 Sudoeste 0 -- -- 87
2019-10-29 22:00:00 15.5 3 Este 6 Este 0 -- -- 84
2019-10-29 21:00:00 16 5 Oeste 12 Oeste 0 -- -- 86
2019-10-29 20:00:00 16.8 0 Calma 7 Sur 0 -- -- 75
2019-10-29 19:00:00 17 3 Sudoeste 9 Sur 0 -- -- 73
2019-10-29 18:00:00 17.4 5 Sur 9 Sudoeste 0 -- -- 84
2019-10-29 17:00:00 18.8 2 Este 5 Noroeste 0 -- -- 81
2019-10-29 16:00:00 18.7 0 Calma 9 Noroeste 0 -- -- 81
2019-10-29 15:00:00 18.6 5 Noroeste 16 Oeste 0 -- -- 85
2019-10-29 14:00:00 18.5 6 Noroeste 16 Noroeste 0 -- -- 85
2019-10-29 13:00:00 18.5 3 Noroeste 13 Noroeste 0 -- -- 82
2019-10-29 12:00:00 18.6 8 Noroeste 15 Noroeste 0 -- -- 82
2019-10-29 11:00:00 20.2 2 Noroeste 5 Este 0 -- -- 71
2019-10-29 10:00:00 19.6 2 Nordeste 8 Sur 0 -- -- 70
2019-10-29 09:00:00 17.4 4 Sudoeste 12 Sudoeste 0 -- -- 75
2019-10-29 08:00:00 16.5 3 Noroeste 17 Sudoeste 0 -- -- 80
2019-10-29 07:00:00 15.3 0 Calma 7 Este 0 -- -- 90
2019-10-29 06:00:00 15.3 4 Sudeste 9 Sudeste 0 -- -- 91
2019-10-29 05:00:00 15.4 6 Este 7 Este 0 -- -- 89
2019-10-29 04:00:00 16.1 0 Calma 4 Norte 0 -- -- 87
2019-10-29 03:00:00 16.2 2 Este 4 Sur 0 -- -- 82
2019-10-29 02:00:00 16.2 0 Calma 4 Sudeste 0 -- -- 82
2019-10-29 01:00:00 16.3 2 Sudeste 4 Sudoeste 0 -- -- 85
2019-10-29 00:00:00 16.8 2 Oeste 4 Norte 0 -- -- 75
2019-10-28 23:00:00 17.1 0 Calma 4 Nordeste 0 -- -- 71
2019-10-28 22:00:00 18.2 4 Oeste 7 Oeste 0 -- -- 67
2019-10-28 21:00:00 18.7 3 Sur 12 Sur 0 -- -- 63
2019-10-28 20:00:00 18.8 5 Oeste 6 Oeste 0 -- -- 63
2019-10-28 19:00:00 19.4 3 Sudoeste 5 Oeste 0 -- -- 61
2019-10-28 18:00:00 21 0 Calma 8 Sudeste 0 -- -- 57
2019-10-28 17:00:00 22.2 7 Sudeste 13 Sudeste 0 -- -- 53
2019-10-28 16:00:00 24.3 5 Sudeste 9 Sudeste 0 -- -- 49
2019-10-28 15:00:00 25.9 3 Sudeste 12 Oeste 0 -- -- 46
2019-10-28 14:00:00 22.6 7 Sudoeste 19 Sudoeste 0 -- -- 50
2019-10-28 13:00:00 22.4 5 Oeste 19 Sur 0 -- -- 51
2019-10-28 12:00:00 21.1 6 Oeste 29 Sudoeste 0 -- -- 54
2019-10-28 11:00:00 20.8 9 Sudoeste 22 Oeste 0 -- -- 53
2019-10-28 10:00:00 20.8 11 Oeste 23 Oeste 0 -- -- 51
2019-10-28 09:00:00 20.4 9 Sudoeste 26 Oeste 0 -- -- 51
2019-10-28 08:00:00 20.3 8 Sudoeste 22 Sudoeste 0 -- -- 49
2019-10-28 07:00:00 20.4 9 Sudoeste 22 Oeste 0 -- -- 49
2019-10-28 06:00:00 20 6 Sur 16 Sur 0 -- -- 51
2019-10-28 05:00:00 20.2 5 Sudoeste 21 Sur 0 -- -- 52
2019-10-28 04:00:00 18.8 8 Sudeste 18 Sudeste 0 -- -- 61
2019-10-28 03:00:00 19.3 8 Sudeste 20 Sudeste 0 -- -- 59
2019-10-28 02:00:00 19.7 7 Sudeste 13 Sur 0 -- -- 57
2019-10-28 01:00:00 19.9 4 Sudoeste 8 Oeste 0 -- -- 56
2019-10-28 00:00:00 20 4 Sur 6 Sudeste 0 -- -- 55
2019-10-27 23:00:00 20.2 5 Sur 19 Sur 0 -- -- 54
2019-10-27 22:00:00 20.4 5 Sur 14 Sur 0 -- -- 54
2019-10-27 21:00:00 20.6 8 Sudoeste 15 Sur 0 -- -- 53
2019-10-27 20:00:00 20.8 5 Sur 26 Sudoeste 0 -- -- 55
2019-10-27 19:00:00 21.2 3 Sudoeste 18 Sudeste 0 -- -- 55
2019-10-27 18:00:00 22.1 6 Sudoeste 12 Sudoeste 0 -- -- 53
2019-10-27 17:00:00 22.8 6 Sudeste 12 Sudeste 0 -- -- 52
2019-10-27 16:00:00 23.9 4 Sudeste 22 Oeste 0 -- -- 53
2019-10-27 15:00:00 23.8 6 Sudoeste 30 Oeste 0 -- -- 50
2019-10-27 14:00:00 24.1 13 Oeste 33 Oeste 0 -- -- 49
2019-10-27 13:00:00 22.8 15 Sudoeste 34 Oeste 0 -- -- 52
2019-10-27 12:00:00 22.5 13 Oeste 36 Sudoeste 0 -- -- 51
2019-10-27 11:00:00 21.4 21 Sudoeste 44 Sudoeste 0 -- -- 51
2019-10-27 10:00:00 20.1 22 Oeste 39 Oeste 0 -- -- 54
2019-10-27 09:00:00 19.5 24 Oeste 47 Sudoeste 0 -- -- 56
2019-10-27 08:00:00 19.3 20 Sudoeste 37 Sudoeste 0 -- -- 56
2019-10-27 07:00:00 19.7 21 Sudoeste 40 Sudoeste 0 -- -- 54
2019-10-27 06:00:00 19.8 23 Sudoeste 37 Oeste 0 -- -- 54
2019-10-27 05:00:00 19.9 22 Oeste 40 Sudoeste 0 -- -- 53
2019-10-27 04:00:00 20 22 Oeste 39 Oeste 0 -- -- 53
2019-10-27 03:00:00 20.4 21 Oeste 48 Sudoeste 0 -- -- 50
2019-10-27 02:00:00 20.3 15 Sudoeste 29 Sudoeste 0 -- -- 51
2019-10-27 01:00:00 20.6 9 Sudoeste 27 Sudoeste 0 -- -- 51
2019-10-27 00:00:00 21 11 Sudeste 24 Sur 0 -- -- 50
2019-10-26 23:00:00 21.6 10 Sudoeste 39 Sudoeste 0 -- -- 46
2019-10-26 22:00:00 21.8 20 Oeste 37 Sudoeste 0 -- -- 46
2019-10-26 21:00:00 21.8 14 Oeste 32 Oeste 0 -- -- 48
2019-10-26 20:00:00 22.3 15 Sudoeste 28 Oeste 0 -- -- 48
2019-10-26 19:00:00 23 12 Sudoeste 30 Oeste 0 -- -- 47
2019-10-26 18:00:00 24.3 14 Sudoeste 35 Sudoeste 0 -- -- 44
2019-10-26 17:00:00 25.1 16 Sudoeste 34 Sudoeste 0 -- -- 42
2019-10-26 16:00:00 25.5 18 Oeste 40 Oeste 0 -- -- 40
2019-10-26 15:00:00 25.2 19 Sudoeste 40 Oeste 0 -- -- 40
2019-10-26 14:00:00 24.4 21 Sudoeste 42 Oeste 0 -- -- 43
2019-10-26 13:00:00 23.3 23 Sudoeste 56 Sudoeste 0 -- -- 46
2019-10-26 12:00:00 22.1 17 Sudoeste 40 Sudoeste 0 -- -- 49
2019-10-26 11:00:00 21.1 18 Sudoeste 37 Sur 0 -- -- 49
2019-10-26 10:00:00 20.1 11 Sudoeste 28 Oeste 0 -- -- 50
2019-10-26 09:00:00 19.7 11 Sudoeste 36 Sudoeste 0 -- -- 50
2019-10-26 08:00:00 19.9 17 Sudoeste 36 Sudoeste 0 -- -- 48
2019-10-26 07:00:00 19.5 18 Oeste 35 Oeste 0 -- -- 51
2019-10-26 06:00:00 19.7 20 Oeste 43 Sudoeste 0 -- -- 50
2019-10-26 05:00:00 19.9 19 Oeste 41 Sur 0 -- -- 50
2019-10-26 04:00:00 20.2 25 Sudoeste 46 Oeste 0 -- -- 48
2019-10-26 03:00:00 20.4 24 Oeste 41 Sudoeste 0 -- -- 46
2019-10-26 02:00:00 20.4 15 Sudoeste 33 Sudoeste 0 -- -- 44
2019-10-26 01:00:00 20.2 19 Oeste 33 Oeste 0 -- -- 41
2019-10-26 00:00:00 20.1 19 Oeste 31 Sudoeste 0 -- -- 41
2019-10-25 23:00:00 19.8 15 Sudoeste 28 Sudoeste 0 -- -- 41
2019-10-25 22:00:00 20.1 8 Sudoeste 15 Sudoeste 0 -- -- 45
2019-10-25 21:00:00 20.1 5 Sudoeste 12 Sur 0 -- -- 50
2019-10-25 20:00:00 19.4 0 Calma 7 Sudeste 0 -- -- 61
2019-10-25 19:00:00 19.2 5 Sudeste 14 Sudeste 0 -- -- 72
2019-10-25 18:00:00 19.6 10 Sudeste 21 Sudeste 0 -- -- 72
2019-10-25 17:00:00 19.2 14 Sudeste 19 Sudeste 0 -- -- 74
2019-10-25 16:00:00 19.7 14 Este 18 Sudeste 0 -- -- 72
2019-10-25 15:00:00 19.9 12 Sudeste 18 Este 0 -- -- 74
2019-10-25 14:00:00 20.9 11 Este 17 Este 0 -- -- 68
2019-10-25 13:00:00 21.3 7 Sudeste 13 Sur 0 -- -- 59
2019-10-25 12:00:00 18.9 5 Sudeste 20 Oeste 0 -- -- 66
2019-10-25 11:00:00 17.6 5 Oeste 30 Sur 0 -- -- 66
2019-10-25 10:00:00 16.3 6 Sudoeste 20 Sudoeste 0 -- -- 70
2019-10-25 09:00:00 14.9 9 Sudoeste 14 Sudoeste 0 -- -- 75
2019-10-25 08:00:00 14.9 8 Sur 14 Sur 0 -- -- 75
2019-10-25 07:00:00 15.3 5 Sudoeste 15 Sur 0 -- -- 74
2019-10-25 06:00:00 15.1 7 Sudoeste 14 Sudoeste 0 -- -- 75
2019-10-25 05:00:00 15.5 6 Sudoeste 10 Sudoeste 0 -- -- 73
2019-10-25 04:00:00 15.2 6 Sur 14 Sur 0 -- -- 74
2019-10-25 03:00:00 15 3 Sur 16 Sudoeste 0 -- -- 75
2019-10-25 02:00:00 15.5 13 Sudoeste 19 Sudoeste 0 -- -- 73
2019-10-25 01:00:00 15.7 10 Sur 16 Sudoeste 0 -- -- 73
2019-10-25 00:00:00 15.5 9 Sudoeste 13 Sudoeste 0 -- -- 77
2019-10-24 23:00:00 15.6 9 Sudoeste 16 Oeste 0 -- -- 76
2019-10-24 22:00:00 15.2 4 Oeste 14 Oeste 0 -- -- 78
2019-10-24 21:00:00 14.9 10 Oeste 17 Sudoeste 0 -- -- 81
2019-10-24 20:00:00 15.4 12 Oeste 30 Oeste 0 -- -- 80
2019-10-24 19:00:00 15.6 19 Oeste 36 Oeste 0 -- -- 81
2019-10-24 18:00:00 15.8 23 Oeste 42 Oeste 0 -- -- 79
2019-10-24 17:00:00 15.9 18 Oeste 52 Sudoeste 0 -- -- 76
2019-10-24 16:00:00 16.4 24 Oeste 44 Sudoeste 0.2 -- -- 75
2019-10-24 15:00:00 14 22 Sudoeste 36 Sudoeste 0.4 -- -- 87
2019-10-24 14:00:00 11.9 22 Sudoeste 36 Sudoeste 4 -- -- 91
2019-10-24 13:00:00 12.1 21 Sudoeste 37 Sudoeste 0.4 -- -- 83
2019-10-24 12:00:00 13 21 Sudoeste 33 Sudoeste 0 -- -- 72
2019-10-24 11:00:00 12.4 21 Sudoeste 38 Sudoeste 0 -- -- 75
2019-10-24 10:00:00 11.9 23 Sudoeste 48 Oeste 0 -- -- 77
2019-10-24 09:00:00 11.2 26 Sudoeste 48 Sudoeste 0.8 -- -- 84
2019-10-24 08:00:00 10.8 26 Sudoeste 42 Sudoeste 0.8 -- -- 87
2019-10-24 07:00:00 10.7 26 Sudoeste 44 Sudoeste 1.6 -- -- 87
2019-10-24 06:00:00 10.4 24 Sudoeste 42 Sudoeste 1 -- -- 89
2019-10-24 05:00:00 10.5 22 Sudoeste 52 Sudoeste 1.2 -- -- 87
2019-10-24 04:00:00 10.6 32 Oeste 53 Sudoeste 1.8 -- -- 88
2019-10-24 03:00:00 11.1 31 Oeste 53 Oeste 0.4 -- -- 84
2019-10-24 02:00:00 12.1 34 Oeste 62 Oeste 0 -- -- 77
2019-10-24 01:00:00 12.4 31 Oeste 61 Oeste 0 -- -- 78
2019-10-24 00:00:00 12.2 19 Sudoeste 50 Sudoeste 0 -- -- 84
2019-10-23 23:00:00 11.7 22 Oeste 38 Oeste 0.4 -- -- 90
2019-10-23 22:00:00 12.3 24 Oeste 50 Sudoeste 0.4 -- -- 89
2019-10-23 21:00:00 13 29 Oeste 42 Oeste 0.2 -- -- 87
2019-10-23 20:00:00 14.1 13 Oeste 25 Sudoeste 0 -- -- 86
2019-10-23 19:00:00 14.6 6 Oeste 12 Oeste 0 -- -- 89
2019-10-23 18:00:00 15.2 7 Noroeste 12 Noroeste 0 -- -- 86
2019-10-23 17:00:00 15.6 0 Calma 11 Noroeste 0 -- -- 84
2019-10-23 16:00:00 15.7 5 Noroeste 9 Oeste 0 -- -- 82
2019-10-23 15:00:00 16 3 Norte 7 Norte 0 -- -- 81
2019-10-23 14:00:00 15.9 4 Nordeste 7 Nordeste 0 -- -- 80
2019-10-23 13:00:00 15.8 5 Nordeste 12 Norte 0 -- -- 83
2019-10-23 12:00:00 14.8 3 Nordeste 9 Sudoeste 0 -- -- 85
2019-10-23 11:00:00 13.8 0 Calma 13 Sudoeste 0 -- -- 88
2019-10-23 10:00:00 12.7 11 Sudoeste 17 Sudoeste 0 -- -- 91
2019-10-23 09:00:00 11.9 9 Sudoeste 14 Sudoeste 0 -- -- 93
2019-10-23 08:00:00 11.8 6 Sudoeste 9 Sudoeste 0 -- -- 93
2019-10-23 07:00:00 12.2 7 Oeste 12 Sudoeste 0 -- -- 94
2019-10-23 06:00:00 12.5 3 Sudeste 18 Este 0 -- -- 94
2019-10-23 05:00:00 12.3 3 Sudeste 17 Nordeste 0 -- -- 96
2019-10-23 04:00:00 11.9 0 Calma 8 Oeste 0 -- -- 96
2019-10-23 03:00:00 12.1 2 Sur 11 Sur 0 -- -- 96
2019-10-23 02:00:00 12 3 Sudoeste 6 Oeste 0 -- -- 96
2019-10-23 01:00:00 11.9 4 Oeste 14 Sur 0 -- -- 96
2019-10-23 00:00:00 12.2 7 Este 15 Este 0.2 -- -- 96
2019-10-22 23:00:00 12.4 5 Nordeste 13 Nordeste 1.6 -- -- 96
2019-10-22 22:00:00 12 2 Norte 17 Nordeste 1.4 -- -- 95
2019-10-22 21:00:00 11.9 3 Nordeste 22 Nordeste 4 -- -- 94
2019-10-22 20:00:00 11.8 4 Noroeste 14 Nordeste 2.6 -- -- 94
2019-10-22 19:00:00 11.6 4 Este 26 Nordeste 1.6 -- -- 93
2019-10-22 18:00:00 11.6 13 Nordeste 28 Nordeste 3.4 -- -- 93
2019-10-22 17:00:00 12 13 Este 28 Nordeste 3.4 -- -- 91
2019-10-22 16:00:00 12.8 8 Este 19 Este 1.6 -- -- 90
2019-10-22 15:00:00 13.2 5 Nordeste 15 Nordeste 0 -- -- 86
2019-10-22 14:00:00 13.3 0 Calma 5 Este 0 -- -- 86
2019-10-22 13:00:00 13 3 Sur 6 Sudeste 0 -- -- 87
2019-10-22 12:00:00 13 3 Este 6 Este 0 -- -- 87
2019-10-22 11:00:00 13 3 Nordeste 10 Sudeste 0 -- -- 86
2019-10-22 10:00:00 12.3 3 Sur 5 Sur 0 -- -- 82
2019-10-22 09:00:00 11.8 2 Sudoeste 4 Oeste 0 -- -- 82
2019-10-22 08:00:00 11.3 2 Sudoeste 5 Sudoeste 0 -- -- 85
2019-10-22 07:00:00 11.3 2 Oeste 7 Sudeste 0 -- -- 86
2019-10-22 06:00:00 11.4 3 Sudeste 8 Este 0 -- -- 86
2019-10-22 05:00:00 11.5 3 Sur 8 Sudeste 0 -- -- 84
2019-10-22 04:00:00 11.4 4 Sur 8 Sur 0 -- -- 83
2019-10-22 03:00:00 11.5 3 Sur 6 Sur 0 -- -- 82
2019-10-22 02:00:00 11.6 4 Sur 8 Sur 0 -- -- 80
2019-10-22 01:00:00 12.1 4 Sur 10 Sudoeste 0 -- -- 78
2019-10-22 00:00:00 12.2 5 Sur 8 Sur 0 -- -- 79
2019-10-21 23:00:00 12 3 Sur 8 Sur 0 -- -- 80
2019-10-21 22:00:00 11.9 4 Sur 10 Sudeste 0 -- -- 81
2019-10-21 21:00:00 12.1 6 Sudeste 8 Sudeste 0 -- -- 80
2019-10-21 20:00:00 12.4 4 Sur 8 Este 0 -- -- 78
2019-10-21 19:00:00 13.7 3 Sudeste 5 Sudeste 0 -- -- 73
2019-10-21 18:00:00 15.5 5 Este 8 Este 0 -- -- 69
2019-10-21 17:00:00 16 5 Nordeste 12 Nordeste 0 -- -- 66
2019-10-21 16:00:00 16 3 Norte 9 Nordeste 0 -- -- 68
2019-10-21 15:00:00 14.5 3 Noroeste 8 Noroeste 0 -- -- 70
2019-10-21 14:00:00 14.6 3 Nordeste 9 Norte 0 -- -- 65
2019-10-21 13:00:00 15.6 3 Noroeste 17 Oeste 0 -- -- 63
2019-10-21 12:00:00 14.5 12 Oeste 19 Oeste 0 -- -- 65
2019-10-21 11:00:00 13.7 8 Oeste 23 Sudoeste 0 -- -- 67
2019-10-21 10:00:00 12.4 14 Sudoeste 22 Sudoeste 0 -- -- 70
2019-10-21 09:00:00 11 14 Sudoeste 23 Sudoeste 0 -- -- 74
2019-10-21 08:00:00 10.9 14 Sudoeste 22 Sudoeste 0 -- -- 75
2019-10-21 07:00:00 11.3 15 Sudoeste 28 Sudoeste 0 -- -- 74
2019-10-21 06:00:00 11.4 18 Sudoeste 30 Sudoeste 0 -- -- 74
2019-10-21 05:00:00 11.4 18 Oeste 31 Sudoeste 0 -- -- 74
2019-10-21 04:00:00 11.3 16 Sudoeste 27 Sudoeste 0 -- -- 76
2019-10-21 03:00:00 11.3 17 Oeste 34 Oeste 0 -- -- 81
2019-10-21 02:00:00 11.4 18 Sudoeste 28 Oeste 0 -- -- 82
2019-10-21 01:00:00 11.1 17 Sudoeste 30 Oeste 0.2 -- -- 84
2019-10-21 00:00:00 10.6 19 Sudoeste 33 Sudoeste 0 -- -- 88
2019-10-20 23:00:00 10.4 19 Sudoeste 32 Sudoeste 1 -- -- 89
2019-10-20 22:00:00 10.9 19 Oeste 31 Oeste 1 -- -- 89
2019-10-20 21:00:00 11.8 12 Oeste 27 Oeste 0 -- -- 81
2019-10-20 20:00:00 11.9 17 Oeste 31 Oeste 0 -- -- 84
2019-10-20 19:00:00 11.7 17 Oeste 29 Oeste 0 -- -- 85
2019-10-20 18:00:00 12.1 18 Oeste 31 Oeste 0.2 -- -- 86
2019-10-20 17:00:00 12 16 Oeste 30 Oeste 0 -- -- 87
2019-10-20 16:00:00 12.1 15 Sudoeste 31 Sudoeste 0 -- -- 91
2019-10-20 15:00:00 11.9 13 Oeste 27 Oeste 0.8 -- -- 93
2019-10-20 14:00:00 12.1 16 Oeste 28 Oeste 0.2 -- -- 90
2019-10-20 13:00:00 11.9 21 Oeste 34 Noroeste 1.8 -- -- 92
2019-10-20 12:00:00 12.5 17 Oeste 31 Oeste 0 -- -- 92
2019-10-20 11:00:00 11.9 22 Oeste 38 Sudoeste 3.4 -- -- 94
2019-10-20 10:00:00 12.1 16 Oeste 29 Oeste 5.4 -- -- 95
2019-10-20 09:00:00 12.1 13 Sudoeste 21 Sudoeste 0.2 -- -- 95
2019-10-20 08:00:00 12 12 Oeste 33 Sudoeste 4.2 -- -- 95
2019-10-20 07:00:00 12.1 17 Oeste 39 Oeste 0.6 -- -- 94
2019-10-20 06:00:00 12.6 23 Oeste 52 Sudoeste 0.6 -- -- 93
2019-10-20 05:00:00 12.7 30 Oeste 46 Oeste 1.4 -- -- 93
2019-10-20 04:00:00 13.2 18 Oeste 33 Oeste 1.6 -- -- 94
2019-10-20 03:00:00 13.6 10 Oeste 19 Oeste 0 -- -- 95
2019-10-20 02:00:00 13.8 6 Oeste 17 Oeste 0.2 -- -- 94
2019-10-20 01:00:00 14.3 8 Oeste 17 Oeste 1 -- -- 94
2019-10-20 00:00:00 14.5 5 Sudoeste 9 Sudoeste 1.2 -- -- 94
2019-10-19 23:00:00 14.7 4 Sur 9 Sudeste 1.8 -- -- 92
2019-10-19 22:00:00 15.1 5 Sudeste 10 Sudoeste 1 -- -- 91
2019-10-19 21:00:00 15.6 0 Calma 15 Sudeste 0.2 -- -- 88
2019-10-19 20:00:00 15.5 5 Este 9 Este 0 -- -- 88
2019-10-19 19:00:00 16.3 3 Norte 13 Nordeste 0.4 -- -- 83
2019-10-19 18:00:00 17.1 5 Sudoeste 15 Este 0 -- -- 78
2019-10-19 17:00:00 18.1 4 Nordeste 8 Este 0 -- -- 73
2019-10-19 16:00:00 17.9 3 Noroeste 12 Noroeste 0 -- -- 76
2019-10-19 15:00:00 19 6 Noroeste 14 Noroeste 0 -- -- 67
2019-10-19 14:00:00 20.4 4 Este 22 Sudeste 0 -- -- 62
2019-10-19 13:00:00 19.2 9 Oeste 28 Sudoeste 0 -- -- 54
2019-10-19 12:00:00 18.8 6 Oeste 23 Oeste 0 -- -- 58
2019-10-19 11:00:00 17.7 12 Oeste 24 Sudoeste 0 -- -- 57
2019-10-19 10:00:00 17.5 11 Sudoeste 23 Oeste 0 -- -- 58
2019-10-19 09:00:00 17.3 8 Sudoeste 31 Sudoeste 0 -- -- 56
2019-10-19 08:00:00 17.3 9 Oeste 28 Sudoeste 0 -- -- 57
2019-10-19 07:00:00 17.2 7 Oeste 24 Oeste 0 -- -- 57
2019-10-19 06:00:00 17.3 10 Oeste 23 Sudoeste 0 -- -- 58
2019-10-19 05:00:00 17.7 17 Oeste 33 Oeste 0 -- -- 56
2019-10-19 04:00:00 17.7 9 Sudoeste 26 Sur 0 -- -- 57
2019-10-19 03:00:00 17.9 12 Sudoeste 26 Sudoeste 0 -- -- 55
2019-10-19 02:00:00 17.1 5 Sur 10 Sudoeste 0 -- -- 61
2019-10-19 01:00:00 17.1 6 Sudoeste 12 Sur 0 -- -- 62
2019-10-19 00:00:00 15.3 2 Norte 6 Oeste 0 -- -- 78
2019-10-18 23:00:00 15.2 3 Oeste 6 Este 0 -- -- 78
2019-10-18 22:00:00 15.2 4 Sur 17 Sudeste 0 -- -- 76
2019-10-18 21:00:00 15.5 7 Sudeste 17 Sudeste 0 -- -- 76
2019-10-18 20:00:00 15.8 7 Sudeste 13 Sudeste 0 -- -- 76
2019-10-18 19:00:00 16.5 3 Sudeste 12 Este 0 -- -- 75
2019-10-18 18:00:00 17.2 3 Este 9 Este 0 -- -- 73
2019-10-18 17:00:00 17.4 4 Nordeste 9 Nordeste 0 -- -- 71
2019-10-18 16:00:00 18.2 2 Norte 7 Este 0 -- -- 70
2019-10-18 15:00:00 18 3 Nordeste 12 Este 0 -- -- 71
2019-10-18 14:00:00 18.1 4 Este 9 Noroeste 0 -- -- 73
2019-10-18 13:00:00 17.6 3 Oeste 9 Sudoeste 0 -- -- 74
2019-10-18 12:00:00 16.4 5 Sur 12 Sudoeste 0 -- -- 83
2019-10-18 11:00:00 15.6 8 Sudoeste 13 Sudoeste 0 -- -- 84
2019-10-18 10:00:00 14.8 9 Sudoeste 14 Sudoeste 0 -- -- 87
2019-10-18 09:00:00 14.7 6 Oeste 15 Sudoeste 0 -- -- 87
2019-10-18 08:00:00 14.1 10 Oeste 20 Oeste 0 -- -- 91
2019-10-18 07:00:00 14 15 Oeste 26 Oeste 0 -- -- 93
2019-10-18 06:00:00 14.6 13 Oeste 21 Oeste 1.6 -- -- 93
2019-10-18 05:00:00 15.8 5 Noroeste 13 Oeste 0 -- -- 87
2019-10-18 04:00:00 16.1 5 Oeste 8 Oeste 0 -- -- 83
2019-10-18 03:00:00 15.9 4 Oeste 6 Oeste 0 -- -- 82
2019-10-18 02:00:00 16.3 0 Calma 4 Oeste 0 -- -- 80
2019-10-18 01:00:00 16.3 4 Oeste 6 Oeste 0 -- -- 80
2019-10-18 00:00:00 16.5 3 Oeste 5 Oeste 0 -- -- 81